Terminal Aerodrome Forecast
Issued by NWS Wakefield, VA

Home | Current Version | Previous Version | Text Only | Print | Product List | Glossary On
Versions: 1 2 3 4 5 6 7 8 9 10 11 12 13
390
FTUS41 KAKQ 142326
TAFRIC
TAF
KRIC 142326Z 1500/1524 14004KT P6SM BKN080 OVC150
     FM150400 15005KT P6SM -SN SCT025 OVC040
     FM150700 12004KT 2SM -SN BR BKN008 OVC020
     FM151300 12005KT 1SM -SN BR OVC004
     FM151700 07005KT 3/4SM FZRAPL BR OVC004
     FM152100 04005KT 2SM -RADZ BR OVC004=

USA.gov is the U.S. government's official web portal to all federal, state and local government web resources and services.